createdAt,value
2022-08-22T00:00:23.269Z,14.03
2022-08-22T00:06:16.954Z,13.32
2022-08-22T00:09:10.463Z,12.27
2022-08-22T00:11:48.397Z,13.60
2022-08-22T00:14:38.412Z,11.33
2022-08-22T00:17:30.094Z,13.07
2022-08-22T00:20:20.116Z,11.63
2022-08-22T00:23:05.888Z,12.35
2022-08-22T00:25:55.322Z,13.18
2022-08-22T00:28:49.197Z,12.07
2022-08-22T00:31:29.164Z,15.18
2022-08-22T00:34:07.639Z,13.77
2022-08-22T00:37:00.249Z,14.48
2022-08-22T00:39:26.980Z,12.77
2022-08-22T00:42:12.798Z,12.60
2022-08-22T00:44:54.545Z,13.90
2022-08-22T00:47:40.044Z,11.68
2022-08-22T00:50:27.619Z,13.60
2022-08-22T00:53:17.850Z,13.32
2022-08-22T00:56:01.340Z,11.90
2022-08-22T00:58:33.948Z,12.75
2022-08-22T01:01:07.260Z,14.65
2022-08-22T01:03:52.628Z,12.90
2022-08-22T01:06:25.276Z,13.40
2022-08-22T01:09:04.310Z,12.37
2022-08-22T01:11:38.525Z,14.52
2022-08-22T01:14:34.622Z,12.80
2022-08-22T01:17:21.105Z,13.25
2022-08-22T01:19:50.524Z,13.70
2022-08-22T01:22:48.623Z,14.03
2022-08-22T01:25:33.936Z,17.35
2022-08-22T01:28:19.146Z,13.13
2022-08-22T01:31:22.335Z,13.25
2022-08-22T01:34:06.823Z,14.07
2022-08-22T01:37:02.164Z,14.97
2022-08-22T01:39:34.703Z,12.15
2022-08-22T01:42:10.954Z,14.82
2022-08-22T01:44:40.278Z,14.90
2022-08-22T01:47:26.935Z,14.90
2022-08-22T01:50:32.567Z,16.70
2022-08-22T01:53:14.807Z,17.58
2022-08-22T01:55:52.440Z,14.07
2022-08-22T01:58:27.065Z,16.25
2022-08-22T02:01:20.288Z,14.85
2022-08-22T02:04:03.792Z,14.23
2022-08-22T02:06:39.910Z,13.25
2022-08-22T02:09:38.693Z,14.93
2022-08-22T02:12:17.210Z,11.77
2022-08-22T02:15:14.799Z,12.90
2022-08-22T02:18:05.186Z,14.27
2022-08-22T02:20:54.087Z,14.02
2022-08-22T02:23:35.727Z,12.10
2022-08-22T02:26:02.272Z,14.18
2022-08-22T02:29:01.198Z,13.90
2022-08-22T02:31:46.427Z,14.20
2022-08-22T02:34:19.167Z,13.63
2022-08-22T02:36:58.231Z,13.75
2022-08-22T02:39:33.593Z,15.45
2022-08-22T02:42:26.830Z,14.70
2022-08-22T02:45:19.762Z,13.07
2022-08-22T02:48:41.023Z,13.88
2022-08-22T02:51:26.010Z,16.20
2022-08-22T02:54:10.687Z,15.13
2022-08-22T02:56:54.564Z,16.65
2022-08-22T02:59:27.339Z,12.50
2022-08-22T03:01:55.784Z,13.75
2022-08-22T03:04:22.385Z,13.98
2022-08-22T03:07:32.778Z,15.80
2022-08-22T03:10:27.739Z,14.45
2022-08-22T03:13:03.453Z,14.03
2022-08-22T03:15:49.792Z,14.95
2022-08-22T03:18:28.500Z,14.52
2022-08-22T03:21:15.284Z,12.77
2022-08-22T03:24:01.607Z,13.13
2022-08-22T03:26:38.784Z,13.17
2022-08-22T03:29:15.507Z,11.85
2022-08-22T03:32:07.716Z,13.38
2022-08-22T03:34:35.730Z,12.43
2022-08-22T03:37:38.110Z,15.07
2022-08-22T03:40:20.060Z,14.13
2022-08-22T03:42:46.701Z,14.02
2022-08-22T03:45:32.069Z,12.82
2022-08-22T03:48:23.840Z,16.27
2022-08-22T03:51:21.056Z,11.45
2022-08-22T03:53:53.532Z,14.73
2022-08-22T03:57:00.581Z,14.50
2022-08-22T03:59:48.335Z,14.27
2022-08-22T04:02:43.541Z,12.30
2022-08-22T04:05:54.967Z,13.00
2022-08-22T04:08:37.738Z,13.03
2022-08-22T04:11:36.209Z,13.50
2022-08-22T04:14:17.153Z,13.95
2022-08-22T04:16:43.791Z,14.55
2022-08-22T04:19:38.765Z,11.98
2022-08-22T04:22:47.642Z,14.50
2022-08-22T04:25:31.066Z,14.70
2022-08-22T04:28:22.288Z,13.63
2022-08-22T04:30:55.856Z,13.30
2022-08-22T04:33:32.162Z,12.50
2022-08-22T04:36:21.392Z,13.10
2022-08-22T04:38:53.853Z,17.48
2022-08-22T04:41:24.884Z,13.10
2022-08-22T04:44:15.642Z,12.95
2022-08-22T04:46:49.602Z,14.27
2022-08-22T04:49:32.004Z,13.97
2022-08-22T04:52:29.865Z,14.35
2022-08-22T04:55:24.811Z,16.00
2022-08-22T04:58:02.238Z,11.98
2022-08-22T05:00:41.930Z,13.80
2022-08-22T05:03:14.683Z,15.43
2022-08-22T05:05:44.124Z,11.63
2022-08-22T05:08:15.031Z,12.55
2022-08-22T05:10:46.553Z,15.52
2022-08-22T05:13:21.665Z,13.93
2022-08-22T05:15:52.013Z,12.87
2022-08-22T05:18:29.576Z,15.98
2022-08-22T05:21:04.238Z,11.00
2022-08-22T05:23:39.598Z,16.13
2022-08-22T05:26:07.600Z,11.27
2022-08-22T05:28:56.495Z,14.37
2022-08-22T05:31:36.880Z,11.52
2022-08-22T05:34:09.674Z,12.32
2022-08-22T05:36:44.368Z,12.43
2022-08-22T05:39:25.417Z,14.02
2022-08-22T05:41:56.893Z,12.30
2022-08-22T05:44:27.264Z,14.90
2022-08-22T05:47:21.496Z,15.15
2022-08-22T05:50:07.193Z,14.20
2022-08-22T05:52:48.994Z,15.40
2022-08-22T05:55:25.666Z,12.47
2022-08-22T05:58:24.572Z,12.77
2022-08-22T06:00:59.200Z,12.18
2022-08-22T06:03:38.030Z,10.65
2022-08-22T06:06:13.770Z,14.57
2022-08-22T06:08:47.620Z,16.37
2022-08-22T06:11:37.838Z,13.20
2022-08-22T06:14:39.870Z,12.82
2022-08-22T06:17:21.826Z,12.73
2022-08-22T06:19:51.385Z,14.05
2022-08-22T06:22:43.773Z,14.70
2022-08-22T06:25:24.749Z,14.35
2022-08-22T06:27:52.938Z,17.05
2022-08-22T06:30:21.330Z,15.02
2022-08-22T06:32:59.753Z,12.80
2022-08-22T06:35:56.325Z,14.00
2022-08-22T06:38:34.894Z,13.77
2022-08-22T06:41:07.081Z,14.48
2022-08-22T06:43:39.328Z,14.73
2022-08-22T06:46:07.503Z,14.98
2022-08-22T06:48:35.900Z,13.07
2022-08-22T06:51:06.415Z,13.88
2022-08-22T06:53:47.754Z,17.27
2022-08-22T06:56:23.335Z,16.00
2022-08-22T06:58:56.192Z,15.68
2022-08-22T07:01:35.623Z,19.50
2022-08-22T07:04:09.130Z,17.27
2022-08-22T07:06:45.098Z,14.80
2022-08-22T07:09:23.652Z,13.48
2022-08-22T07:11:52.369Z,14.55
2022-08-22T07:14:29.772Z,14.30
2022-08-22T07:16:59.808Z,14.43
2022-08-22T07:19:42.064Z,15.70
2022-08-22T07:22:15.723Z,15.65
2022-08-22T07:24:50.590Z,14.15
2022-08-22T07:27:38.434Z,17.67
2022-08-22T07:30:09.977Z,15.57
2022-08-22T07:32:54.061Z,14.30
2022-08-22T07:35:25.751Z,16.10
2022-08-22T07:38:10.468Z,16.75
2022-08-22T07:41:01.567Z,15.30
2022-08-22T07:43:33.732Z,14.43
2022-08-22T07:46:28.527Z,14.60
2022-08-22T07:49:10.020Z,15.52
2022-08-22T07:51:51.294Z,14.15
2022-08-22T07:54:28.786Z,16.03
2022-08-22T07:57:07.361Z,16.23
2022-08-22T07:59:48.650Z,14.30
2022-08-22T08:02:17.714Z,13.77
2022-08-22T08:04:45.852Z,15.20
2022-08-22T08:07:16.108Z,14.43
2022-08-22T08:10:14.336Z,13.85
2022-08-22T08:13:01.848Z,15.98
2022-08-22T08:15:32.604Z,16.42
2022-08-22T08:18:05.494Z,14.77
2022-08-22T08:20:35.692Z,14.97
2022-08-22T08:23:08.830Z,17.45
2022-08-22T08:25:53.424Z,15.57
2022-08-22T08:28:38.063Z,13.57
2022-08-22T08:31:14.998Z,14.00
2022-08-22T08:33:45.035Z,12.00
2022-08-22T08:36:23.865Z,15.13
2022-08-22T08:39:01.644Z,17.55
2022-08-22T08:41:38.324Z,13.93
2022-08-22T08:44:17.914Z,15.38
2022-08-22T08:47:12.486Z,13.90
2022-08-22T08:49:57.490Z,15.02
2022-08-22T08:52:52.245Z,20.20
2022-08-22T08:55:44.002Z,16.65
2022-08-22T08:58:34.372Z,16.02
2022-08-22T09:01:28.704Z,16.43
2022-08-22T09:04:15.586Z,15.32
2022-08-22T09:07:06.127Z,14.18
2022-08-22T09:09:52.330Z,14.45
2022-08-22T09:12:54.417Z,15.50
2022-08-22T09:15:42.878Z,15.60
2022-08-22T09:18:41.959Z,12.98
2022-08-22T09:21:45.472Z,10.95
2022-08-22T09:24:41.334Z,14.95
2022-08-22T09:27:33.049Z,12.45
2022-08-22T09:30:31.479Z,12.13
2022-08-22T09:33:16.291Z,10.30
2022-08-22T09:36:05.198Z,9.25
2022-08-22T09:38:35.332Z,9.95
2022-08-22T09:41:14.476Z,10.05
2022-08-22T09:43:52.171Z,11.93
2022-08-22T09:46:31.556Z,11.07
2022-08-22T09:49:06.870Z,10.18
2022-08-22T09:51:51.071Z,11.93
2022-08-22T09:54:41.612Z,9.60
2022-08-22T09:57:22.714Z,10.30
2022-08-22T10:00:02.069Z,11.05
2022-08-22T10:02:43.637Z,14.57
2022-08-22T10:05:13.300Z,13.02
2022-08-22T10:08:27.996Z,10.57
2022-08-22T10:11:07.262Z,11.83
2022-08-22T10:13:57.882Z,18.52
2022-08-22T10:16:52.780Z,14.00
2022-08-22T10:19:44.537Z,10.23
2022-08-22T10:22:20.466Z,10.43
2022-08-22T10:24:53.866Z,13.97
2022-08-22T10:28:01.386Z,13.25
2022-08-22T10:31:17.793Z,11.50
2022-08-22T10:34:03.127Z,10.23
2022-08-22T10:36:33.276Z,9.55
2022-08-22T10:39:11.006Z,11.57
2022-08-22T10:41:38.659Z,14.00
2022-08-22T10:44:15.486Z,11.32
2022-08-22T10:46:54.321Z,12.38
2022-08-22T10:49:40.136Z,10.27
2022-08-22T10:52:31.948Z,11.70
2022-08-22T10:55:11.094Z,11.55
2022-08-22T10:58:00.602Z,11.95
2022-08-22T11:00:50.355Z,13.02
2022-08-22T11:03:21.906Z,12.02
2022-08-22T11:05:53.056Z,10.67
2022-08-22T11:09:00.489Z,10.13
2022-08-22T11:11:44.515Z,9.02
2022-08-22T11:14:26.847Z,9.48
2022-08-22T11:17:40.611Z,10.95
2022-08-22T11:20:19.858Z,10.23
2022-08-22T11:22:50.946Z,10.85
2022-08-22T11:25:53.754Z,7.53
2022-08-22T11:28:41.527Z,10.32
2022-08-22T11:31:27.666Z,9.07
2022-08-22T11:34:24.430Z,11.57
2022-08-22T11:37:15.617Z,11.07
2022-08-22T11:40:03.966Z,10.60
2022-08-22T11:42:49.271Z,8.70
2022-08-22T11:45:23.657Z,9.35
2022-08-22T11:48:02.610Z,9.10
2022-08-22T11:50:45.529Z,9.57
2022-08-22T11:53:34.181Z,8.32
2022-08-22T11:56:23.233Z,8.85
2022-08-22T11:59:07.373Z,10.70
2022-08-22T12:01:52.847Z,8.47
2022-08-22T12:04:33.890Z,10.27
2022-08-22T12:07:16.055Z,8.10
2022-08-22T12:09:50.782Z,9.38
2022-08-22T12:12:26.399Z,10.00
2022-08-22T12:15:11.339Z,9.57
2022-08-22T12:18:01.438Z,8.13
2022-08-22T12:21:25.721Z,7.95
2022-08-22T12:24:19.028Z,8.32
2022-08-22T12:26:53.226Z,8.55
2022-08-22T12:29:45.228Z,8.13
2022-08-22T12:32:35.744Z,10.32
2022-08-22T12:35:20.725Z,9.75
2022-08-22T12:38:29.122Z,12.15
2022-08-22T12:41:11.922Z,10.68
2022-08-22T12:43:49.465Z,8.97
2022-08-22T12:46:28.863Z,7.60
2022-08-22T12:49:33.959Z,7.25
2022-08-22T12:52:09.636Z,9.32
2022-08-22T12:55:12.197Z,9.50
2022-08-22T12:57:50.440Z,8.27
2022-08-22T13:00:26.692Z,6.30
2022-08-22T13:03:00.439Z,6.65
2022-08-22T13:05:31.399Z,8.73
2022-08-22T13:08:14.036Z,8.18
2022-08-22T13:10:52.725Z,9.07
2022-08-22T13:13:37.298Z,9.68
2022-08-22T13:16:13.039Z,9.40
2022-08-22T13:18:55.217Z,8.32
2022-08-22T13:21:34.864Z,8.52
2022-08-22T13:24:16.805Z,8.70
2022-08-22T13:26:52.127Z,8.75
2022-08-22T13:29:39.556Z,7.60
2022-08-22T13:32:23.635Z,7.30
2022-08-22T13:34:56.144Z,6.60
2022-08-22T13:37:30.052Z,9.30
2022-08-22T13:40:02.379Z,10.52
2022-08-22T13:42:32.308Z,7.28
2022-08-22T13:45:05.323Z,9.35
2022-08-22T13:47:35.872Z,10.43
2022-08-22T13:50:21.329Z,10.67
2022-08-22T13:52:56.236Z,7.47
2022-08-22T13:55:55.016Z,10.40
2022-08-22T13:58:35.040Z,7.00
2022-08-22T14:01:25.606Z,8.23
2022-08-22T14:04:28.676Z,10.37
2022-08-22T14:07:04.466Z,8.00
2022-08-22T14:09:45.263Z,8.20
2022-08-22T14:12:33.313Z,9.73
2022-08-22T14:15:10.834Z,8.15
2022-08-22T14:17:43.269Z,11.17
2022-08-22T14:20:43.898Z,10.73
2022-08-22T14:23:18.588Z,10.27
2022-08-22T14:25:45.696Z,10.98
2022-08-22T14:28:22.040Z,8.85
2022-08-22T14:31:13.437Z,8.88
2022-08-22T14:34:02.359Z,9.63
2022-08-22T14:36:48.760Z,9.03
2022-08-22T14:39:59.595Z,10.98
2022-08-22T14:42:44.405Z,10.23
2022-08-22T14:45:17.862Z,10.13
2022-08-22T14:48:29.630Z,10.57
2022-08-22T14:50:57.344Z,10.57
2022-08-22T14:53:30.637Z,11.90
2022-08-22T14:56:18.135Z,8.38
2022-08-22T14:58:47.910Z,11.13
2022-08-22T15:01:19.703Z,8.18
2022-08-22T15:04:00.724Z,10.25
2022-08-22T15:06:36.076Z,9.07
2022-08-22T15:09:09.269Z,8.20
2022-08-22T15:11:36.731Z,9.07
2022-08-22T15:14:12.787Z,10.40
2022-08-22T15:17:01.054Z,9.35
2022-08-22T15:19:45.870Z,7.40
2022-08-22T15:22:18.969Z,9.98
2022-08-22T15:25:08.511Z,6.75
2022-08-22T15:27:48.978Z,7.03
2022-08-22T15:30:20.498Z,8.35
2022-08-22T15:32:49.154Z,8.17
2022-08-22T15:35:31.611Z,9.43
2022-08-22T15:38:02.281Z,8.05
2022-08-22T15:40:31.745Z,8.52
2022-08-22T15:43:13.050Z,10.82
2022-08-22T15:45:42.283Z,9.20
2022-08-22T15:48:31.037Z,8.07
2022-08-22T15:51:01.746Z,9.68
2022-08-22T15:53:59.710Z,7.57
2022-08-22T15:56:29.490Z,7.68
2022-08-22T15:59:48.221Z,10.73
2022-08-22T16:02:35.209Z,7.25
2022-08-22T16:05:11.342Z,9.77
2022-08-22T16:07:42.803Z,10.23
2022-08-22T16:10:25.883Z,10.07
2022-08-22T16:13:15.801Z,10.33
2022-08-22T16:15:52.635Z,7.13
2022-08-22T16:18:34.651Z,8.32
2022-08-22T16:21:03.378Z,7.63
2022-08-22T16:23:49.969Z,10.20
2022-08-22T16:26:29.573Z,9.47
2022-08-22T16:28:59.372Z,9.00
2022-08-22T16:31:44.160Z,7.35
2022-08-22T16:34:16.724Z,8.27
2022-08-22T16:36:46.061Z,7.50
2022-08-22T16:39:22.066Z,7.90
2022-08-22T16:42:22.249Z,8.23
2022-08-22T16:44:57.987Z,7.47
2022-08-22T16:47:30.953Z,7.28
2022-08-22T16:50:04.287Z,8.60
2022-08-22T16:52:31.933Z,8.37
2022-08-22T16:55:03.237Z,7.65
2022-08-22T16:58:05.362Z,8.85
2022-08-22T17:00:49.802Z,5.40
2022-08-22T17:03:42.597Z,7.28
2022-08-22T17:06:38.513Z,8.17
2022-08-22T17:09:17.508Z,6.53
2022-08-22T17:12:05.855Z,9.45
2022-08-22T17:14:47.481Z,8.73
2022-08-22T17:17:17.162Z,9.32
2022-08-22T17:19:49.560Z,11.70
2022-08-22T17:22:29.038Z,9.32
2022-08-22T17:25:14.018Z,8.63
2022-08-22T17:27:44.869Z,9.05
2022-08-22T17:30:36.883Z,8.48
2022-08-22T17:33:12.387Z,8.90
2022-08-22T17:36:26.407Z,7.10
2022-08-22T17:39:15.333Z,8.10
2022-08-22T17:41:53.850Z,7.72
2022-08-22T17:44:42.144Z,8.68
2022-08-22T17:47:16.208Z,10.17
2022-08-22T17:49:42.757Z,8.68
2022-08-22T17:52:28.518Z,9.07
2022-08-22T17:55:05.443Z,8.60
2022-08-22T17:57:32.069Z,7.60
2022-08-22T18:00:14.395Z,7.50
2022-08-22T18:02:50.022Z,7.95
2022-08-22T18:05:24.945Z,9.05
2022-08-22T18:08:37.584Z,7.13
2022-08-22T18:11:08.876Z,8.52
2022-08-22T18:13:53.780Z,7.67
2022-08-22T18:16:20.504Z,7.85
2022-08-22T18:19:03.342Z,6.35
2022-08-22T18:21:35.409Z,7.65
2022-08-22T18:24:14.300Z,8.27
2022-08-22T18:27:30.045Z,9.10
2022-08-22T18:30:05.695Z,6.40
2022-08-22T18:32:52.563Z,8.00
2022-08-22T18:35:49.794Z,7.25
2022-08-22T18:38:30.028Z,7.93
2022-08-22T18:41:14.907Z,7.67
2022-08-22T18:43:48.307Z,7.78
2022-08-22T18:46:40.114Z,8.80
2022-08-22T18:49:19.772Z,11.27
2022-08-22T18:52:17.367Z,9.27
2022-08-22T18:55:15.059Z,8.80
2022-08-22T18:58:06.811Z,7.57
2022-08-22T19:00:46.328Z,10.70
2022-08-22T19:03:45.187Z,9.32
2022-08-22T19:06:28.359Z,8.40
2022-08-22T19:09:12.837Z,7.67
2022-08-22T19:12:02.783Z,8.77
2022-08-22T19:14:40.666Z,9.82
2022-08-22T19:17:28.691Z,9.52
2022-08-22T19:20:25.675Z,8.32
2022-08-22T19:23:32.691Z,11.57
2022-08-22T19:26:21.739Z,9.45
2022-08-22T19:28:49.371Z,8.23
2022-08-22T19:31:41.801Z,8.82
2022-08-22T19:34:29.493Z,8.93
2022-08-22T19:37:32.231Z,8.67
2022-08-22T19:40:09.887Z,9.15
2022-08-22T19:42:38.999Z,10.05
2022-08-22T19:45:18.525Z,12.13
2022-08-22T19:47:54.789Z,9.27
2022-08-22T19:50:21.340Z,7.67
2022-08-22T19:52:57.630Z,9.48
2022-08-22T19:55:39.206Z,13.48
2022-08-22T19:58:40.980Z,7.85
2022-08-22T20:01:35.199Z,9.45
2022-08-22T20:04:31.472Z,8.00
2022-08-22T20:07:43.210Z,8.65
2022-08-22T20:10:42.706Z,10.63
2022-08-22T20:13:19.573Z,9.02
2022-08-22T20:16:07.410Z,9.45
2022-08-22T20:19:06.980Z,10.87
2022-08-22T20:21:58.611Z,9.07
2022-08-22T20:24:59.759Z,11.02
2022-08-22T20:27:26.304Z,8.48
2022-08-22T20:30:12.198Z,10.73
2022-08-22T20:32:41.733Z,7.45
2022-08-22T20:35:16.963Z,9.50
2022-08-22T20:38:06.283Z,8.20
2022-08-22T20:40:55.679Z,9.20
2022-08-22T20:43:35.420Z,8.15
2022-08-22T20:46:24.019Z,8.90
2022-08-22T20:48:54.085Z,9.48
2022-08-22T20:51:25.064Z,8.73
2022-08-22T20:54:10.136Z,7.90
2022-08-22T20:56:53.198Z,10.07
2022-08-22T20:59:27.511Z,8.85
2022-08-22T21:02:15.158Z,8.70
2022-08-22T21:04:48.667Z,7.95
2022-08-22T21:07:41.391Z,9.37
2022-08-22T21:10:41.233Z,8.25
2022-08-22T21:13:14.118Z,11.20
2022-08-22T21:15:46.477Z,9.27
2022-08-22T21:18:24.003Z,10.73
2022-08-22T21:20:51.532Z,8.80
2022-08-22T21:23:19.524Z,9.68
2022-08-22T21:25:58.657Z,8.45
2022-08-22T21:28:35.057Z,10.27
2022-08-22T21:31:15.883Z,9.35
2022-08-22T21:33:45.249Z,8.50
2022-08-22T21:36:15.061Z,15.27
2022-08-22T21:38:48.907Z,9.95
2022-08-22T21:41:28.524Z,8.57
2022-08-22T21:43:55.477Z,10.75
2022-08-22T21:46:28.646Z,8.37
2022-08-22T21:49:04.841Z,7.53
2022-08-22T21:51:39.711Z,9.73
2022-08-22T21:54:22.061Z,10.45
2022-08-22T21:56:49.655Z,10.77
2022-08-22T21:59:50.981Z,10.33
2022-08-22T22:02:36.664Z,9.10
2022-08-22T22:05:16.293Z,9.65
2022-08-22T22:07:45.919Z,8.80
2022-08-22T22:10:17.204Z,12.45
2022-08-22T22:12:45.667Z,10.47
2022-08-22T22:15:16.530Z,10.85
2022-08-22T22:17:43.642Z,12.15
2022-08-22T22:20:12.012Z,9.98
2022-08-22T22:22:45.971Z,9.57
2022-08-22T22:25:40.573Z,8.97
2022-08-22T22:28:11.391Z,10.88
2022-08-22T22:30:38.263Z,8.73
2022-08-22T22:33:04.899Z,9.05
2022-08-22T22:35:32.412Z,11.05
2022-08-22T22:37:59.212Z,12.07
2022-08-22T22:40:27.150Z,10.20
2022-08-22T22:42:53.797Z,9.25
2022-08-22T22:45:20.379Z,9.45
2022-08-22T22:47:46.989Z,9.50
2022-08-22T22:50:13.780Z,10.07
2022-08-22T22:52:40.805Z,11.73
2022-08-22T22:55:09.071Z,12.25
2022-08-22T22:57:42.698Z,8.60
2022-08-22T23:00:11.958Z,10.52
2022-08-22T23:02:39.146Z,10.03
2022-08-22T23:05:07.175Z,11.02
2022-08-22T23:07:34.040Z,11.20
2022-08-22T23:10:01.468Z,8.88
2022-08-22T23:12:28.920Z,10.50
2022-08-22T23:14:55.682Z,9.50
2022-08-22T23:17:22.315Z,9.07
2022-08-22T23:19:51.082Z,9.50
2022-08-22T23:22:17.927Z,11.75
2022-08-22T23:24:44.831Z,10.88
2022-08-22T23:27:12.140Z,9.90
2022-08-22T23:29:43.555Z,8.52
2022-08-22T23:32:11.527Z,10.70
2022-08-22T23:34:44.095Z,9.57
2022-08-22T23:37:11.206Z,13.63
2022-08-22T23:39:40.671Z,7.40
2022-08-22T23:42:08.776Z,8.88
2022-08-22T23:44:37.349Z,8.95
2022-08-22T23:47:06.253Z,14.27
2022-08-22T23:49:33.691Z,12.20
2022-08-22T23:52:00.333Z,11.33
2022-08-22T23:54:27.019Z,11.32
2022-08-22T23:56:56.211Z,12.30
2022-08-22T23:59:30.066Z,8.07
